createdAt,value
2023-04-14T00:02:06.326Z,6.22
2023-04-14T00:04:33.588Z,5.93
2023-04-14T00:07:00.691Z,10.80
2023-04-14T00:09:27.320Z,8.93
2023-04-14T00:11:53.975Z,5.45
2023-04-14T00:14:20.707Z,3.55
2023-04-14T00:16:47.468Z,3.20
2023-04-14T00:19:14.188Z,2.70
2023-04-14T00:21:41.360Z,5.47
2023-04-14T00:24:08.032Z,7.05
2023-04-14T00:26:34.673Z,9.15
2023-04-14T00:29:01.439Z,8.57
2023-04-14T00:31:28.411Z,6.45
2023-04-14T00:33:55.204Z,7.78
2023-04-14T00:36:21.946Z,7.95
2023-04-14T00:38:48.681Z,6.97
2023-04-14T00:41:15.342Z,4.68
2023-04-14T00:43:42.090Z,4.57
2023-04-14T00:46:08.849Z,3.67
2023-04-14T00:48:35.542Z,3.72
2023-04-14T00:51:02.472Z,3.67
2023-04-14T00:53:29.134Z,3.78
2023-04-14T00:55:55.823Z,2.72
2023-04-14T00:58:22.460Z,3.38
2023-04-14T01:00:53.966Z,3.85
2023-04-14T01:03:21.188Z,4.28
2023-04-14T01:05:47.903Z,4.05
2023-04-14T01:08:14.555Z,3.20
2023-04-14T01:10:44.533Z,2.47
2023-04-14T01:13:22.782Z,2.70
2023-04-14T01:15:59.750Z,2.90
2023-04-14T01:18:37.289Z,2.58
2023-04-14T01:21:07.060Z,2.75
2023-04-14T01:23:40.807Z,2.92
2023-04-14T01:26:13.587Z,2.83
2023-04-14T01:29:17.856Z,2.70
2023-04-14T01:31:49.020Z,3.17
2023-04-14T01:34:36.912Z,2.85
2023-04-14T01:37:08.697Z,2.58
2023-04-14T01:39:37.783Z,2.63
2023-04-14T01:42:06.668Z,2.40
2023-04-14T01:47:04.890Z,3.00
2023-04-14T01:49:32.994Z,3.00
2023-04-14T01:52:00.304Z,3.78
2023-04-14T01:54:26.972Z,3.65
2023-04-14T01:56:53.637Z,3.67
2023-04-14T01:59:21.700Z,4.40
2023-04-14T02:01:50.483Z,4.25
2023-04-14T02:06:44.474Z,3.60
2023-04-14T02:09:13.154Z,3.58
2023-04-14T02:14:06.438Z,4.40
2023-04-14T02:16:33.929Z,3.60
2023-04-14T02:19:00.972Z,3.78
2023-04-14T02:21:28.640Z,6.22
2023-04-14T02:23:55.331Z,8.77
2023-04-14T02:26:22.578Z,7.50
2023-04-14T02:29:22.239Z,7.43
2023-04-14T02:31:53.063Z,3.60
2023-04-14T02:34:19.707Z,3.90
2023-04-14T02:36:48.196Z,2.88
2023-04-14T02:39:24.166Z,3.60
2023-04-14T02:41:58.687Z,4.00
2023-04-14T02:44:27.201Z,3.30
2023-04-14T02:47:08.000Z,4.10
2023-04-14T02:49:36.893Z,4.00
2023-04-14T02:52:07.119Z,4.13
2023-04-14T02:54:34.918Z,4.70
2023-04-14T02:57:02.296Z,3.90
2023-04-14T02:59:29.592Z,3.65
2023-04-14T03:01:56.859Z,5.00
2023-04-14T03:04:23.887Z,7.00
2023-04-14T03:06:50.890Z,8.32
2023-04-14T03:09:18.173Z,8.30
2023-04-14T03:11:44.793Z,8.00
2023-04-14T03:14:11.477Z,8.25
2023-04-14T03:16:39.552Z,7.70
2023-04-14T03:19:07.971Z,7.22
2023-04-14T03:21:34.689Z,6.88
2023-04-14T03:24:01.435Z,7.32
2023-04-14T03:26:28.094Z,8.05
2023-04-14T03:28:54.845Z,7.90
2023-04-14T03:31:21.629Z,9.77
2023-04-14T03:33:48.706Z,9.73
2023-04-14T03:36:15.742Z,8.43
2023-04-14T03:38:42.522Z,9.35
2023-04-14T03:41:10.048Z,7.93
2023-04-14T03:43:36.991Z,7.80
2023-04-14T03:46:06.238Z,9.43
2023-04-14T03:48:36.799Z,8.02
2023-04-14T03:51:04.704Z,6.65
2023-04-14T03:53:31.570Z,6.38
2023-04-14T03:55:59.307Z,25.42
2023-04-14T03:58:26.000Z,14.05
2023-04-14T04:00:52.686Z,14.98
2023-04-14T04:03:19.587Z,9.90
2023-04-14T04:05:46.425Z,8.88
2023-04-14T04:08:13.165Z,8.60
2023-04-14T04:10:40.082Z,9.02
2023-04-14T04:13:07.908Z,9.60
2023-04-14T04:15:34.624Z,10.50
2023-04-14T04:18:01.298Z,11.75
2023-04-14T04:20:27.933Z,13.07
2023-04-14T04:22:55.865Z,11.77
2023-04-14T04:25:22.530Z,11.70
2023-04-14T04:27:49.224Z,10.20
2023-04-14T04:30:16.558Z,10.45
2023-04-14T04:32:43.298Z,11.30
2023-04-14T04:35:09.987Z,16.95
2023-04-14T04:37:36.708Z,16.73
2023-04-14T04:40:04.015Z,17.13
2023-04-14T04:42:30.781Z,16.48
2023-04-14T04:44:57.516Z,15.07
2023-04-14T04:47:24.147Z,14.55
2023-04-14T04:49:50.817Z,16.10
2023-04-14T04:52:17.532Z,12.55
2023-04-14T04:54:45.448Z,12.00
2023-04-14T04:57:12.332Z,13.98
2023-04-14T04:59:39.126Z,12.07
2023-04-14T05:02:05.878Z,13.32
2023-04-14T05:04:33.442Z,12.32
2023-04-14T05:07:00.280Z,11.38
2023-04-14T05:09:27.551Z,11.32
2023-04-14T05:11:54.233Z,16.88
2023-04-14T05:14:21.215Z,11.85
2023-04-14T05:16:47.996Z,11.88
2023-04-14T05:19:15.112Z,10.40
2023-04-14T05:21:42.364Z,8.60
2023-04-14T05:24:09.247Z,12.13
2023-04-14T05:26:57.739Z,13.45
2023-04-14T05:29:22.605Z,6.32
2023-04-14T05:31:49.388Z,9.23
2023-04-14T05:34:16.130Z,11.25
2023-04-14T05:36:43.117Z,12.32
2023-04-14T05:39:09.807Z,24.88
2023-04-14T05:41:36.540Z,24.63
2023-04-14T05:44:04.105Z,27.27
2023-04-14T05:46:31.188Z,26.02
2023-04-14T05:48:58.061Z,24.40
2023-04-14T05:51:24.788Z,23.67
2023-04-14T05:53:51.533Z,20.52
2023-04-14T05:56:18.220Z,22.73
2023-04-14T05:58:44.941Z,22.90
2023-04-14T06:01:11.858Z,16.30
2023-04-14T06:03:40.568Z,14.75
2023-04-14T06:06:08.828Z,24.67
2023-04-14T06:08:35.647Z,27.05
2023-04-14T06:11:02.835Z,28.10
2023-04-14T06:13:32.042Z,27.08
2023-04-14T06:16:00.838Z,28.52
2023-04-14T06:18:27.687Z,26.50
2023-04-14T06:20:54.361Z,23.20
2023-04-14T06:23:21.866Z,21.58
2023-04-14T06:25:48.624Z,19.40
2023-04-14T06:28:15.431Z,19.10
2023-04-14T06:30:42.181Z,14.93
2023-04-14T06:33:08.865Z,11.85
2023-04-14T06:35:35.749Z,18.17
2023-04-14T06:38:02.556Z,13.18
2023-04-14T06:40:29.370Z,17.52
2023-04-14T06:42:56.232Z,6.97
2023-04-14T06:45:23.750Z,5.57
2023-04-14T06:47:50.495Z,9.05
2023-04-14T06:50:17.223Z,5.45
2023-04-14T06:52:43.925Z,6.60
2023-04-14T06:55:10.799Z,10.30
2023-04-14T06:57:37.552Z,2.92
2023-04-14T07:00:09.564Z,5.93
2023-04-14T07:02:36.705Z,2.90
2023-04-14T07:05:03.602Z,2.80
2023-04-14T07:07:30.372Z,4.80
2023-04-14T07:09:57.165Z,4.40
2023-04-14T07:12:23.856Z,2.95
2023-04-14T07:14:53.285Z,3.63
2023-04-14T07:17:20.102Z,3.40
2023-04-14T07:19:46.903Z,3.40
2023-04-14T07:22:13.641Z,5.38
2023-04-14T07:24:40.507Z,3.35
2023-04-14T07:27:07.506Z,3.03
2023-04-14T07:29:35.124Z,4.57
2023-04-14T07:32:02.369Z,5.13
2023-04-14T07:34:29.057Z,3.47
2023-04-14T07:36:55.737Z,3.67
2023-04-14T07:39:23.704Z,4.68
2023-04-14T07:41:50.701Z,3.20
2023-04-14T07:44:17.383Z,3.35
2023-04-14T07:46:44.425Z,3.42
2023-04-14T07:49:11.374Z,3.40
2023-04-14T07:51:38.102Z,2.95
2023-04-14T07:54:06.228Z,4.07
2023-04-14T07:56:33.070Z,3.25
2023-04-14T07:58:59.868Z,4.38
2023-04-14T08:01:27.200Z,3.83
2023-04-14T08:03:54.352Z,3.30
2023-04-14T08:06:21.407Z,3.75
2023-04-14T08:08:48.163Z,3.50
2023-04-14T08:11:14.839Z,5.05
2023-04-14T08:13:43.175Z,3.30
2023-04-14T08:16:09.833Z,3.47
2023-04-14T08:18:36.899Z,2.25
2023-04-14T08:21:03.618Z,3.97
2023-04-14T08:23:30.376Z,3.58
2023-04-14T08:25:57.182Z,3.10
2023-04-14T08:28:23.921Z,3.60
2023-04-14T08:30:50.734Z,3.15
2023-04-14T08:33:17.436Z,3.58
2023-04-14T08:35:44.244Z,2.65
2023-04-14T08:38:11.188Z,3.45
2023-04-14T08:40:38.865Z,1.98
2023-04-14T08:43:05.905Z,2.63
2023-04-14T08:45:33.083Z,2.40
2023-04-14T08:48:00.900Z,3.40
2023-04-14T08:50:43.197Z,2.50
2023-04-14T08:53:10.202Z,2.65
2023-04-14T08:55:40.658Z,2.08
2023-04-14T08:58:08.178Z,2.30
2023-04-14T09:00:35.309Z,2.97
2023-04-14T09:03:02.433Z,3.05
2023-04-14T09:05:29.634Z,3.33
2023-04-14T09:07:56.282Z,3.38
2023-04-14T09:10:23.248Z,3.20
2023-04-14T09:12:50.344Z,3.20
2023-04-14T09:15:17.071Z,3.67
2023-04-14T09:17:43.865Z,3.10
2023-04-14T09:20:36.568Z,2.47
2023-04-14T09:22:57.900Z,3.65
2023-04-14T09:25:24.559Z,2.60
2023-04-14T09:27:51.268Z,3.10
2023-04-14T09:30:18.068Z,3.15
2023-04-14T09:32:45.224Z,2.95
2023-04-14T09:35:16.205Z,2.85
2023-04-14T09:37:46.530Z,3.30
2023-04-14T09:40:29.179Z,3.42
2023-04-14T09:42:56.471Z,2.60
2023-04-14T09:45:23.148Z,3.05
2023-04-14T09:48:06.149Z,2.60
2023-04-14T09:50:33.590Z,3.10
2023-04-14T09:53:00.294Z,2.58
2023-04-14T09:55:27.446Z,3.92
2023-04-14T09:57:54.188Z,3.30
2023-04-14T10:00:24.769Z,3.55
2023-04-14T10:02:55.688Z,2.83
2023-04-14T10:05:26.320Z,3.13
2023-04-14T10:07:52.965Z,2.70
2023-04-14T10:10:19.817Z,4.72
2023-04-14T10:12:46.605Z,2.22
2023-04-14T10:15:14.829Z,2.33
2023-04-14T10:17:42.526Z,2.65
2023-04-14T10:20:10.363Z,2.50
2023-04-14T10:22:39.084Z,2.72
2023-04-14T10:25:08.152Z,2.60
2023-04-14T10:27:34.769Z,2.90
2023-04-14T10:30:01.779Z,1.90
2023-04-14T10:32:31.536Z,3.30
2023-04-14T10:35:01.223Z,2.45
2023-04-14T10:37:27.837Z,2.47
2023-04-14T10:39:57.993Z,2.65
2023-04-14T10:42:24.821Z,2.83
2023-04-14T10:45:07.707Z,3.58
2023-04-14T10:47:36.148Z,2.33
2023-04-14T10:50:13.435Z,2.33
2023-04-14T10:52:49.686Z,2.05
2023-04-14T10:55:16.416Z,1.75
2023-04-14T10:57:43.818Z,1.63
2023-04-14T11:00:19.728Z,2.67
2023-04-14T11:02:59.610Z,2.85
2023-04-14T11:05:26.407Z,2.05
2023-04-14T11:07:56.168Z,2.60
2023-04-14T11:10:22.932Z,2.90
2023-04-14T11:13:01.637Z,2.40
2023-04-14T11:15:51.414Z,2.80
2023-04-14T11:18:45.246Z,2.85
2023-04-14T11:21:15.736Z,3.25
2023-04-14T11:23:42.803Z,2.42
2023-04-14T11:26:10.366Z,3.13
2023-04-14T11:28:41.178Z,2.22
2023-04-14T11:31:11.020Z,2.55
2023-04-14T11:33:38.754Z,3.15
2023-04-14T11:36:06.450Z,2.55
2023-04-14T11:38:35.664Z,2.65
2023-04-14T11:41:02.480Z,3.60
2023-04-14T11:43:30.784Z,2.58
2023-04-14T11:45:57.922Z,2.88
2023-04-14T11:48:24.585Z,2.80
2023-04-14T11:50:52.254Z,2.60
2023-04-14T11:53:19.163Z,2.50
2023-04-14T11:55:50.464Z,2.30
2023-04-14T11:58:24.558Z,2.58
2023-04-14T12:00:54.187Z,2.90
2023-04-14T12:03:22.506Z,2.53
2023-04-14T12:05:49.283Z,2.78
2023-04-14T12:08:16.913Z,2.30
2023-04-14T12:10:43.600Z,2.53
2023-04-14T12:13:11.206Z,1.73
2023-04-14T12:15:39.191Z,2.08
2023-04-14T12:18:14.868Z,2.45
2023-04-14T12:20:53.509Z,2.67
2023-04-14T12:23:20.147Z,3.50
2023-04-14T12:25:49.544Z,1.95
2023-04-14T12:28:24.688Z,2.83
2023-04-14T12:30:52.191Z,2.30
2023-04-14T12:33:22.324Z,2.00
2023-04-14T12:35:50.625Z,2.92
2023-04-14T12:38:17.275Z,2.83
2023-04-14T12:40:46.079Z,2.45
2023-04-14T12:43:13.621Z,2.53
2023-04-14T12:45:48.250Z,2.13
2023-04-14T12:48:18.129Z,3.05
2023-04-14T12:50:45.048Z,5.05
2023-04-14T12:53:27.358Z,2.50
2023-04-14T12:56:10.437Z,2.20
2023-04-14T12:58:38.038Z,3.13
2023-04-14T13:01:06.782Z,5.22
2023-04-14T13:03:46.463Z,1.90
2023-04-14T13:06:16.493Z,2.25
2023-04-14T13:08:44.852Z,2.20
2023-04-14T13:11:12.872Z,2.30
2023-04-14T13:13:39.588Z,2.55
2023-04-14T13:16:13.978Z,2.47
2023-04-14T13:18:43.548Z,1.98
2023-04-14T13:21:10.355Z,2.80
2023-04-14T13:23:37.052Z,1.83
2023-04-14T13:26:03.843Z,2.50
2023-04-14T13:28:30.615Z,2.33
2023-04-14T13:30:57.667Z,2.35
2023-04-14T13:33:25.124Z,3.13
2023-04-14T13:35:52.017Z,2.85
2023-04-14T13:38:18.686Z,2.13
2023-04-14T13:40:47.520Z,2.53
2023-04-14T13:43:15.530Z,3.13
2023-04-14T13:45:42.419Z,2.25
2023-04-14T13:48:09.082Z,2.20
2023-04-14T13:50:35.763Z,2.20
2023-04-14T13:53:02.430Z,3.10
2023-04-14T13:55:29.128Z,3.28
2023-04-14T13:57:55.874Z,2.20
2023-04-14T14:00:22.478Z,2.10
2023-04-14T14:02:51.864Z,2.10
2023-04-14T14:10:11.933Z,2.38
2023-04-14T14:12:38.619Z,2.15
2023-04-14T14:15:05.920Z,1.70
2023-04-14T14:17:32.873Z,2.67
2023-04-14T14:19:59.576Z,6.07
2023-04-14T14:22:26.410Z,2.50
2023-04-14T14:24:58.525Z,4.90
2023-04-14T14:27:31.741Z,3.88
2023-04-14T14:29:58.440Z,3.20
2023-04-14T14:32:25.270Z,2.47
2023-04-14T14:34:51.922Z,2.63
2023-04-14T14:37:19.639Z,2.92
2023-04-14T14:39:46.304Z,4.00
2023-04-14T14:42:12.933Z,4.18
2023-04-14T14:44:39.582Z,3.10
2023-04-14T14:47:06.533Z,2.80
2023-04-14T14:49:33.373Z,3.55
2023-04-14T14:52:02.509Z,2.80
2023-04-14T14:54:29.152Z,3.83
2023-04-14T14:56:56.586Z,4.50
2023-04-14T14:59:23.275Z,3.65
2023-04-14T15:01:50.028Z,2.88
2023-04-14T15:04:17.283Z,2.28
2023-04-14T15:06:44.110Z,2.67
2023-04-14T15:09:11.398Z,3.55
2023-04-14T15:11:38.042Z,4.78
2023-04-14T15:14:04.774Z,4.57
2023-04-14T15:16:31.498Z,3.42
2023-04-14T15:18:58.829Z,4.80
2023-04-14T15:21:25.519Z,3.67
2023-04-14T15:23:52.418Z,3.42
2023-04-14T15:26:19.223Z,3.28
2023-04-14T15:28:48.123Z,3.45
2023-04-14T15:31:14.900Z,3.13
2023-04-14T15:33:42.021Z,2.63
2023-04-14T15:36:08.989Z,4.13
2023-04-14T15:38:35.773Z,4.10
2023-04-14T15:41:02.481Z,3.38
2023-04-14T15:43:29.416Z,3.30
2023-04-14T15:45:56.153Z,6.75
2023-04-14T15:48:22.901Z,15.55
2023-04-14T15:50:49.534Z,4.13
2023-04-14T15:53:16.812Z,61.42
2023-04-14T15:55:44.524Z,23.80
2023-04-14T15:58:11.357Z,14.25
2023-04-14T16:00:38.399Z,4.00
2023-04-14T16:03:05.191Z,3.83
2023-04-14T16:05:32.008Z,4.30
2023-04-14T16:07:58.918Z,3.58
2023-04-14T16:10:25.718Z,6.03
2023-04-14T16:12:52.865Z,4.00
2023-04-14T16:15:19.615Z,3.85
2023-04-14T16:17:46.474Z,3.50
2023-04-14T16:20:13.623Z,2.85
2023-04-14T16:22:40.459Z,2.85
2023-04-14T16:25:07.510Z,4.40
2023-04-14T16:27:34.335Z,3.25
2023-04-14T16:30:01.260Z,3.75
2023-04-14T16:32:28.059Z,2.95
2023-04-14T16:34:54.944Z,3.15
2023-04-14T16:37:25.702Z,6.32
2023-04-14T16:39:56.328Z,3.63
2023-04-14T16:42:24.530Z,3.28
2023-04-14T16:44:52.238Z,3.40
2023-04-14T16:47:19.346Z,4.47
2023-04-14T16:49:46.126Z,9.68
2023-04-14T16:52:12.870Z,4.47
2023-04-14T16:54:39.631Z,6.35
2023-04-14T16:57:07.427Z,4.43
2023-04-14T16:59:34.142Z,3.75
2023-04-14T17:02:01.986Z,3.90
2023-04-14T17:04:29.306Z,4.18
2023-04-14T17:06:56.776Z,3.47
2023-04-14T17:09:23.614Z,6.35
2023-04-14T17:11:50.298Z,4.03
2023-04-14T17:14:17.029Z,4.65
2023-04-14T17:16:43.832Z,5.35
2023-04-14T17:19:10.729Z,3.72
2023-04-14T17:21:38.647Z,4.40
2023-04-14T17:24:05.407Z,3.55
2023-04-14T17:26:32.073Z,4.35
2023-04-14T17:28:58.753Z,3.88
2023-04-14T17:31:25.623Z,5.05
2023-04-14T17:33:52.542Z,3.67
2023-04-14T17:36:19.225Z,4.45
2023-04-14T17:38:46.055Z,4.03
2023-04-14T17:41:13.130Z,4.40
2023-04-14T17:43:41.569Z,4.03
2023-04-14T17:46:08.699Z,4.38
2023-04-14T17:48:35.397Z,5.15
2023-04-14T17:51:02.042Z,4.68
2023-04-14T17:53:28.736Z,4.10
2023-04-14T17:55:56.163Z,5.28
2023-04-14T17:58:24.020Z,4.75
2023-04-14T18:00:51.780Z,4.88
2023-04-14T18:03:18.543Z,4.75
2023-04-14T18:05:45.492Z,3.90
2023-04-14T18:08:12.165Z,3.88
2023-04-14T18:10:39.328Z,4.72
2023-04-14T18:13:06.014Z,4.30
2023-04-14T18:15:32.695Z,3.80
2023-04-14T18:17:59.399Z,3.45
2023-04-14T18:20:26.599Z,4.93
2023-04-14T18:22:57.787Z,4.25
2023-04-14T18:25:24.536Z,3.60
2023-04-14T18:30:21.297Z,5.22
2023-04-14T18:32:47.963Z,4.75
2023-04-14T18:35:15.818Z,4.72
2023-04-14T18:37:43.364Z,5.90
2023-04-14T18:40:10.577Z,6.13
2023-04-14T18:42:37.468Z,7.18
2023-04-14T18:45:04.581Z,8.07
2023-04-14T18:47:31.300Z,6.95
2023-04-14T18:49:58.622Z,6.93
2023-04-14T18:52:25.267Z,4.88
2023-04-14T18:54:52.009Z,3.20
2023-04-14T18:57:18.731Z,10.77
2023-04-14T18:59:45.812Z,7.03
2023-04-14T19:02:13.781Z,8.43
2023-04-14T19:04:40.950Z,10.18
2023-04-14T19:07:07.620Z,12.80
2023-04-14T19:09:36.153Z,7.43
2023-04-14T19:14:30.199Z,10.15
2023-04-14T19:16:57.993Z,8.50
2023-04-14T19:19:25.144Z,7.38
2023-04-14T19:21:51.770Z,10.15
2023-04-14T19:24:19.978Z,7.47
2023-04-14T19:26:47.105Z,6.30
2023-04-14T19:29:13.882Z,7.75
2023-04-14T19:31:40.959Z,3.92
2023-04-14T19:34:07.695Z,4.07
2023-04-14T19:36:34.516Z,5.22
2023-04-14T19:39:01.405Z,3.47
2023-04-14T19:41:29.720Z,5.00
2023-04-14T19:43:56.461Z,2.28
2023-04-14T19:46:23.154Z,3.30
2023-04-14T19:48:50.211Z,3.70
2023-04-14T19:51:16.954Z,12.20
2023-04-14T19:53:46.278Z,8.25
2023-04-14T19:56:12.971Z,6.95
2023-04-14T19:58:39.695Z,3.90
2023-04-14T20:01:06.355Z,7.57
2023-04-14T20:03:34.676Z,2.72
2023-04-14T20:08:28.708Z,10.32
2023-04-14T20:10:55.416Z,4.20
2023-04-14T20:13:23.172Z,3.50
2023-04-14T20:15:50.718Z,2.58
2023-04-14T20:18:17.987Z,12.48
2023-04-14T20:20:46.039Z,3.08
2023-04-14T20:23:12.714Z,2.97
2023-04-14T20:25:39.404Z,9.80
2023-04-14T20:28:06.465Z,4.28
2023-04-14T20:30:33.449Z,5.18
2023-04-14T20:33:01.240Z,3.30
2023-04-14T20:35:28.109Z,4.10
2023-04-14T20:37:54.786Z,2.65
2023-04-14T20:40:22.339Z,3.00
2023-04-14T20:42:49.001Z,3.22
2023-04-14T20:45:15.896Z,2.17
2023-04-14T20:47:42.623Z,14.35
2023-04-14T20:50:09.855Z,6.40
2023-04-14T20:52:36.555Z,2.13
2023-04-14T20:55:03.723Z,12.07
2023-04-14T20:57:30.451Z,3.45
2023-04-14T20:59:57.084Z,4.88
2023-04-14T21:02:23.902Z,4.70
2023-04-14T21:04:50.624Z,5.18
2023-04-14T21:07:17.286Z,5.15
2023-04-14T21:09:44.641Z,3.78
2023-04-14T21:12:14.499Z,3.60
2023-04-14T21:15:30.865Z,6.00
2023-04-14T21:19:56.712Z,5.28
2023-04-14T21:22:23.415Z,5.47
2023-04-14T21:24:50.883Z,6.00
2023-04-14T21:27:17.583Z,5.45
2023-04-14T21:29:44.610Z,5.05
2023-04-14T21:32:11.610Z,2.97
2023-04-14T21:34:38.347Z,3.85
2023-04-14T21:37:05.009Z,8.15
2023-04-14T21:39:33.279Z,5.68
2023-04-14T21:42:00.232Z,5.28
2023-04-14T21:44:27.380Z,4.18
2023-04-14T21:46:55.009Z,4.47
2023-04-14T21:49:22.074Z,4.30
2023-04-14T21:51:50.353Z,6.15
2023-04-14T21:54:17.138Z,3.90
2023-04-14T21:56:45.076Z,3.80
2023-04-14T21:59:11.841Z,2.90
2023-04-14T22:01:39.576Z,4.07
2023-04-14T22:04:06.545Z,4.65
2023-04-14T22:06:33.753Z,2.95
2023-04-14T22:09:00.633Z,2.22
2023-04-14T22:11:28.778Z,1.80
2023-04-14T22:13:56.686Z,2.05
2023-04-14T22:16:23.363Z,2.33
2023-04-14T22:18:50.028Z,7.63
2023-04-14T22:21:16.632Z,2.80
2023-04-14T22:23:46.755Z,3.30
2023-04-14T22:26:14.132Z,3.80
2023-04-14T22:28:41.121Z,2.92
2023-04-14T22:31:07.952Z,2.85
2023-04-14T22:33:35.048Z,3.30
2023-04-14T22:36:04.474Z,3.67
2023-04-14T22:38:31.818Z,5.18
2023-04-14T22:40:58.535Z,2.55
2023-04-14T22:43:25.534Z,4.78
2023-04-14T22:45:52.674Z,3.55
2023-04-14T22:48:19.346Z,3.63
2023-04-14T22:50:46.169Z,3.20
2023-04-14T22:53:12.880Z,4.85
2023-04-14T22:55:39.492Z,5.50
2023-04-14T22:58:06.175Z,6.57
2023-04-14T23:00:33.493Z,4.20
2023-04-14T23:03:00.467Z,5.90
2023-04-14T23:05:27.373Z,7.05
2023-04-14T23:07:54.744Z,4.85
2023-04-14T23:10:21.480Z,4.90
2023-04-14T23:12:48.145Z,3.85
2023-04-14T23:15:14.904Z,2.90
2023-04-14T23:17:41.775Z,3.47
2023-04-14T23:20:08.970Z,2.63
2023-04-14T23:22:35.754Z,3.00
2023-04-14T23:25:02.432Z,2.88
2023-04-14T23:27:29.329Z,2.55
2023-04-14T23:29:56.330Z,2.83
2023-04-14T23:32:23.074Z,4.15
2023-04-14T23:34:49.801Z,3.00
2023-04-14T23:37:16.495Z,3.38
2023-04-14T23:39:43.089Z,3.75
2023-04-14T23:42:09.766Z,4.03
2023-04-14T23:44:37.244Z,3.28
2023-04-14T23:47:06.351Z,2.10
2023-04-14T23:49:35.648Z,2.13
2023-04-14T23:52:03.308Z,1.70
2023-04-14T23:54:31.091Z,0.95
2023-04-14T23:56:58.190Z,1.23
2023-04-14T23:59:24.969Z,1.50
